createdAt,value
2023-04-01T00:00:01.356Z,9.00
2023-04-01T00:02:28.355Z,9.05
2023-04-01T00:04:55.207Z,9.63
2023-04-01T00:07:22.117Z,10.30
2023-04-01T00:09:48.967Z,8.93
2023-04-01T00:12:15.908Z,10.05
2023-04-01T00:14:42.961Z,9.45
2023-04-01T00:17:09.813Z,9.52
2023-04-01T00:19:36.725Z,10.93
2023-04-01T00:22:04.043Z,9.45
2023-04-01T00:24:31.013Z,9.70
2023-04-01T00:26:57.810Z,9.05
2023-04-01T00:29:29.191Z,9.73
2023-04-01T00:31:57.420Z,10.90
2023-04-01T00:34:24.881Z,10.07
2023-04-01T00:36:53.263Z,9.85
2023-04-01T00:39:21.829Z,9.52
2023-04-01T00:41:48.808Z,9.77
2023-04-01T00:44:19.754Z,8.40
2023-04-01T00:46:47.130Z,9.05
2023-04-01T00:49:15.103Z,8.85
2023-04-01T00:51:44.117Z,9.80
2023-04-01T00:54:12.217Z,8.70
2023-04-01T00:57:02.700Z,8.07
2023-04-01T00:59:39.988Z,7.53
2023-04-01T01:02:09.983Z,7.85
2023-04-01T01:04:41.591Z,6.90
2023-04-01T01:07:24.425Z,7.22
2023-04-01T01:10:07.628Z,10.00
2023-04-01T01:12:56.185Z,9.73
2023-04-01T01:15:23.031Z,8.38
2023-04-01T01:17:53.465Z,8.73
2023-04-01T01:20:26.531Z,10.43
2023-04-01T01:22:56.996Z,9.73
2023-04-01T01:25:32.987Z,7.63
2023-04-01T01:28:18.188Z,8.10
2023-04-01T01:31:01.432Z,9.45
2023-04-01T01:33:52.078Z,9.23
2023-04-01T01:36:22.275Z,9.00
2023-04-01T01:38:51.023Z,8.48
2023-04-01T01:41:19.788Z,7.95
2023-04-01T01:43:51.189Z,8.20
2023-04-01T01:46:25.716Z,7.15
2023-04-01T01:48:53.981Z,7.77
2023-04-01T01:51:22.926Z,9.60
2023-04-01T01:53:49.944Z,7.82
2023-04-01T01:56:21.047Z,8.02
2023-04-01T01:58:52.578Z,7.72
2023-04-01T02:01:28.351Z,7.63
2023-04-01T02:03:59.469Z,8.70
2023-04-01T02:06:33.201Z,8.40
2023-04-01T02:09:11.580Z,8.43
2023-04-01T02:11:48.609Z,7.93
2023-04-01T02:14:21.047Z,7.60
2023-04-01T02:16:58.467Z,7.13
2023-04-01T02:19:32.343Z,8.43
2023-04-01T02:22:03.676Z,7.60
2023-04-01T02:24:34.431Z,8.50
2023-04-01T02:27:01.362Z,7.60
2023-04-01T02:29:29.237Z,6.43
2023-04-01T02:31:56.973Z,7.05
2023-04-01T02:34:25.906Z,7.10
2023-04-01T02:36:54.313Z,5.75
2023-04-01T02:39:21.779Z,6.80
2023-04-01T02:41:48.615Z,6.20
2023-04-01T02:44:17.015Z,5.30
2023-04-01T02:46:44.566Z,6.38
2023-04-01T02:49:12.028Z,7.57
2023-04-01T02:51:38.889Z,7.00
2023-04-01T02:54:06.094Z,6.57
2023-04-01T02:56:33.049Z,7.30
2023-04-01T02:59:00.077Z,6.55
2023-04-01T03:01:26.998Z,6.47
2023-04-01T03:03:53.830Z,7.17
2023-04-01T03:06:20.755Z,6.93
2023-04-01T03:08:47.794Z,7.55
2023-04-01T03:11:15.100Z,7.53
2023-04-01T03:13:42.158Z,6.28
2023-04-01T03:16:09.441Z,6.27
2023-04-01T03:18:36.240Z,7.38
2023-04-01T03:21:21.245Z,7.05
2023-04-01T03:23:48.075Z,7.65
2023-04-01T03:26:15.917Z,7.85
2023-04-01T03:28:43.313Z,7.53
2023-04-01T03:31:11.063Z,8.32
2023-04-01T03:33:44.058Z,8.13
2023-04-01T03:36:13.257Z,8.63
2023-04-01T03:38:44.070Z,7.45
2023-04-01T03:41:15.437Z,8.03
2023-04-01T03:43:43.171Z,9.40
2023-04-01T03:46:10.904Z,9.88
2023-04-01T03:48:37.840Z,9.77
2023-04-01T03:51:08.917Z,8.02
2023-04-01T03:53:36.383Z,9.30
2023-04-01T03:56:09.801Z,8.93
2023-04-01T03:58:37.875Z,9.00
2023-04-01T04:01:21.675Z,8.05
2023-04-01T04:03:50.914Z,8.10
2023-04-01T04:06:19.585Z,8.83
2023-04-01T04:08:47.403Z,8.90
2023-04-01T04:11:14.436Z,8.73
2023-04-01T04:13:43.771Z,8.48
2023-04-01T04:16:11.296Z,9.20
2023-04-01T04:18:42.678Z,8.13
2023-04-01T04:21:15.895Z,8.10
2023-04-01T04:23:43.920Z,7.85
2023-04-01T04:26:13.654Z,8.13
2023-04-01T04:28:41.159Z,8.20
2023-04-01T04:31:08.956Z,8.70
2023-04-01T04:33:37.078Z,8.85
2023-04-01T04:36:05.427Z,9.20
2023-04-01T04:38:32.912Z,9.57
2023-04-01T04:41:00.165Z,9.60
2023-04-01T04:43:27.157Z,9.10
2023-04-01T04:45:54.456Z,9.35
2023-04-01T04:48:21.724Z,9.98
2023-04-01T04:50:51.198Z,10.25
2023-04-01T04:53:20.321Z,10.00
2023-04-01T04:55:49.273Z,10.00
2023-04-01T04:58:33.611Z,10.82
2023-04-01T05:01:07.904Z,11.48
2023-04-01T05:03:35.585Z,11.75
2023-04-01T05:06:02.603Z,11.27
2023-04-01T05:08:30.296Z,12.10
2023-04-01T05:10:57.234Z,12.02
2023-04-01T05:13:24.120Z,11.77
2023-04-01T05:15:51.128Z,11.70
2023-04-01T05:18:18.211Z,11.80
2023-04-01T05:20:53.080Z,11.97
2023-04-01T05:23:22.075Z,12.82
2023-04-01T05:25:50.900Z,12.75
2023-04-01T05:28:18.054Z,12.00
2023-04-01T05:30:47.135Z,12.10
2023-04-01T05:33:22.792Z,12.50
2023-04-01T05:35:49.756Z,12.45
2023-04-01T05:38:16.648Z,11.43
2023-04-01T05:40:43.399Z,12.25
2023-04-01T05:43:10.450Z,12.73
2023-04-01T05:45:37.717Z,12.00
2023-04-01T05:48:13.394Z,13.70
2023-04-01T05:50:42.558Z,12.50
2023-04-01T05:53:10.991Z,13.02
2023-04-01T05:55:38.937Z,12.55
2023-04-01T05:58:06.058Z,13.13
2023-04-01T06:00:33.418Z,13.38
2023-04-01T06:03:01.131Z,12.60
2023-04-01T06:05:41.612Z,12.93
2023-04-01T06:08:26.842Z,12.90
2023-04-01T06:11:06.158Z,12.70
2023-04-01T06:13:49.451Z,12.77
2023-04-01T06:16:22.396Z,12.48
2023-04-01T06:19:23.707Z,13.07
2023-04-01T06:22:05.355Z,12.55
2023-04-01T06:25:00.837Z,11.83
2023-04-01T06:27:33.479Z,11.27
2023-04-01T06:30:17.859Z,10.80
2023-04-01T06:33:29.866Z,10.57
2023-04-01T06:36:09.875Z,10.98
2023-04-01T06:38:58.550Z,12.13
2023-04-01T06:41:28.232Z,11.55
2023-04-01T06:44:19.977Z,11.40
2023-04-01T06:47:20.048Z,11.98
2023-04-01T06:50:16.168Z,12.13
2023-04-01T06:53:20.689Z,11.10
2023-04-01T06:56:16.073Z,11.50
2023-04-01T06:59:18.544Z,11.25
2023-04-01T07:01:51.629Z,11.10
2023-04-01T07:04:26.101Z,10.15
2023-04-01T07:07:16.102Z,11.17
2023-04-01T07:09:56.324Z,10.77
2023-04-01T07:12:32.060Z,10.27
2023-04-01T07:15:21.289Z,10.20
2023-04-01T07:17:56.506Z,11.38
2023-04-01T07:20:31.881Z,12.27
2023-04-01T07:23:01.295Z,11.20
2023-04-01T07:25:43.056Z,12.10
2023-04-01T07:28:39.080Z,11.95
2023-04-01T07:32:02.287Z,11.15
2023-04-01T07:34:58.546Z,11.37
2023-04-01T07:37:42.894Z,1.60
2023-04-01T07:40:15.488Z,1.00
2023-04-01T07:43:06.583Z,0.70
2023-04-01T07:45:49.785Z,1.08
2023-04-01T07:48:41.491Z,0.90
2023-04-01T07:51:20.737Z,0.80
2023-04-01T07:54:18.079Z,0.90
2023-04-01T07:57:02.014Z,0.80
2023-04-01T08:00:00.028Z,0.70
2023-04-01T08:03:22.394Z,1.00
2023-04-01T08:06:13.021Z,1.00
2023-04-01T08:08:57.872Z,0.90
2023-04-01T08:11:55.947Z,1.00
2023-04-01T08:15:13.248Z,0.70
2023-04-01T08:18:32.790Z,0.70
2023-04-01T08:21:08.107Z,0.90
2023-04-01T08:23:41.664Z,0.70
2023-04-01T08:26:30.580Z,0.70
2023-04-01T08:29:10.370Z,0.93
2023-04-01T08:31:44.065Z,0.80
2023-04-01T08:34:23.283Z,0.73
2023-04-01T08:36:56.346Z,1.10
2023-04-01T08:39:31.830Z,0.80
2023-04-01T08:42:20.119Z,1.00
2023-04-01T08:45:31.890Z,0.80
2023-04-01T08:48:35.510Z,0.80
2023-04-01T08:51:24.583Z,0.63
2023-04-01T08:54:19.287Z,0.80
2023-04-01T08:57:00.783Z,0.90
2023-04-01T09:00:01.978Z,0.80
2023-04-01T09:03:14.886Z,0.98
2023-04-01T09:06:03.361Z,0.95
2023-04-01T09:08:45.218Z,1.02
2023-04-01T09:11:29.391Z,0.80
2023-04-01T09:14:39.081Z,0.73
2023-04-01T09:17:52.242Z,0.80
2023-04-01T09:20:28.081Z,0.80
2023-04-01T09:23:29.137Z,0.90
2023-04-01T09:26:11.048Z,0.70
2023-04-01T09:28:54.784Z,1.03
2023-04-01T09:31:46.237Z,0.93
2023-04-01T09:35:39.668Z,0.80
2023-04-01T09:38:18.561Z,0.70
2023-04-01T09:41:04.682Z,1.10
2023-04-01T09:44:15.840Z,0.67
2023-04-01T09:47:15.343Z,0.70
2023-04-01T09:49:56.733Z,0.80
2023-04-01T09:52:24.150Z,1.60
2023-04-01T09:54:53.983Z,0.70
2023-04-01T09:58:05.268Z,0.70
2023-04-01T10:01:09.089Z,0.90
2023-04-01T10:04:09.091Z,1.00
2023-04-01T10:07:20.555Z,0.77
2023-04-01T10:10:08.658Z,0.80
2023-04-01T10:13:07.224Z,0.70
2023-04-01T10:15:56.744Z,0.95
2023-04-01T10:18:30.710Z,0.73
2023-04-01T10:21:22.821Z,0.80
2023-04-01T10:24:08.773Z,0.82
2023-04-01T10:26:56.823Z,0.93
2023-04-01T10:30:06.525Z,0.98
2023-04-01T10:32:58.056Z,0.82
2023-04-01T10:36:09.637Z,1.00
2023-04-01T10:39:13.057Z,0.80
2023-04-01T10:42:04.571Z,1.03
2023-04-01T10:45:11.810Z,0.90
2023-04-01T10:47:44.932Z,0.90
2023-04-01T10:50:25.112Z,0.90
2023-04-01T10:53:42.044Z,0.90
2023-04-01T10:56:51.389Z,0.70
2023-04-01T11:00:19.608Z,0.90
2023-04-01T11:03:27.209Z,0.90
2023-04-01T11:06:36.916Z,0.90
2023-04-01T11:09:34.841Z,1.20
2023-04-01T11:12:26.529Z,1.00
2023-04-01T11:15:31.377Z,0.90
2023-04-01T11:18:23.941Z,0.90
2023-04-01T11:21:02.852Z,0.70
2023-04-01T11:23:49.350Z,0.70
2023-04-01T11:26:33.810Z,0.80
2023-04-01T11:29:59.200Z,0.70
2023-04-01T11:32:42.480Z,0.70
2023-04-01T11:35:38.164Z,0.90
2023-04-01T11:38:36.536Z,0.70
2023-04-01T11:41:50.459Z,0.90
2023-04-01T11:44:43.834Z,1.00
2023-04-01T11:47:46.630Z,0.80
2023-04-01T11:50:32.306Z,0.70
2023-04-01T11:53:24.062Z,0.70
2023-04-01T11:55:53.719Z,0.80
2023-04-01T11:58:39.279Z,0.80
2023-04-01T12:01:21.292Z,0.80
2023-04-01T12:03:57.405Z,0.82
2023-04-01T12:06:33.927Z,0.70
2023-04-01T12:09:10.266Z,0.80
2023-04-01T12:11:53.515Z,0.77
2023-04-01T12:14:23.804Z,0.90
2023-04-01T12:16:56.728Z,1.10
2023-04-01T12:19:51.594Z,0.93
2023-04-01T12:22:36.401Z,0.80
2023-04-01T12:25:28.073Z,0.98
2023-04-01T12:28:28.431Z,0.80
2023-04-01T12:31:17.359Z,0.70
2023-04-01T12:33:44.379Z,0.77
2023-04-01T12:36:30.149Z,0.70
2023-04-01T12:39:08.964Z,0.70
2023-04-01T12:42:04.698Z,0.90
2023-04-01T12:44:52.873Z,0.80
2023-04-01T12:47:45.947Z,0.80
2023-04-01T12:50:31.013Z,1.03
2023-04-01T12:53:12.906Z,0.95
2023-04-01T12:55:51.701Z,0.85
2023-04-01T12:58:37.447Z,1.02
2023-04-01T13:01:44.421Z,1.23
2023-04-01T13:04:14.483Z,0.70
2023-04-01T13:07:19.193Z,0.80
2023-04-01T13:10:04.143Z,0.70
2023-04-01T13:12:38.232Z,0.80
2023-04-01T13:15:29.247Z,0.75
2023-04-01T13:18:04.959Z,1.00
2023-04-01T13:20:58.919Z,1.00
2023-04-01T13:23:31.539Z,0.88
2023-04-01T13:26:23.712Z,0.70
2023-04-01T13:29:02.775Z,0.80
2023-04-01T13:31:47.184Z,1.00
2023-04-01T13:34:26.048Z,0.80
2023-04-01T13:37:15.914Z,0.70
2023-04-01T13:39:51.754Z,0.80
2023-04-01T13:42:48.551Z,0.95
2023-04-01T13:45:25.691Z,0.80
2023-04-01T13:48:27.946Z,1.00
2023-04-01T13:51:21.124Z,0.80
2023-04-01T13:54:20.154Z,0.73
2023-04-01T13:56:52.841Z,0.80
2023-04-01T13:59:48.170Z,0.70
2023-04-01T14:02:39.367Z,0.90
2023-04-01T14:05:32.417Z,0.70
2023-04-01T14:08:33.250Z,0.80
2023-04-01T14:11:15.926Z,0.80
2023-04-01T14:14:08.061Z,0.70
2023-04-01T14:17:05.672Z,0.80
2023-04-01T14:19:54.740Z,0.70
2023-04-01T14:22:59.968Z,0.70
2023-04-01T14:25:54.754Z,0.70
2023-04-01T14:28:46.689Z,0.70
2023-04-01T14:31:47.794Z,0.70
2023-04-01T14:34:26.868Z,1.00
2023-04-01T14:36:59.905Z,0.70
2023-04-01T14:39:52.511Z,0.70
2023-04-01T14:42:22.652Z,0.70
2023-04-01T14:44:56.506Z,0.70
2023-04-01T14:47:44.682Z,0.80
2023-04-01T14:50:18.102Z,0.80
2023-04-01T14:52:59.203Z,0.80
2023-04-01T14:55:35.692Z,0.70
2023-04-01T14:58:14.621Z,0.80
2023-04-01T15:00:47.537Z,0.90
2023-04-01T15:03:33.671Z,0.80
2023-04-01T15:06:19.162Z,2.10
2023-04-01T15:09:09.360Z,1.33
2023-04-01T15:11:39.206Z,1.17
2023-04-01T15:14:23.372Z,1.50
2023-04-01T15:16:56.349Z,0.70
2023-04-01T15:19:57.197Z,1.25
2023-04-01T15:22:29.942Z,1.00
2023-04-01T15:25:14.666Z,0.70
2023-04-01T15:27:44.828Z,0.70
2023-04-01T15:30:14.331Z,1.00
2023-04-01T15:32:55.559Z,0.80
2023-04-01T15:35:37.457Z,0.80
2023-04-01T15:38:42.707Z,1.15
2023-04-01T15:41:25.887Z,0.77
2023-04-01T15:43:55.519Z,0.82
2023-04-01T15:46:45.546Z,0.77
2023-04-01T15:49:49.805Z,0.80
2023-04-01T15:52:23.680Z,0.80
2023-04-01T15:55:18.887Z,0.90
2023-04-01T15:58:25.233Z,0.82
2023-04-01T16:00:57.985Z,0.90
2023-04-01T16:03:46.197Z,0.80
2023-04-01T16:06:38.176Z,0.77
2023-04-01T16:09:33.329Z,0.90
2023-04-01T16:12:24.414Z,0.80
2023-04-01T16:15:18.683Z,1.33
2023-04-01T16:18:06.702Z,0.87
2023-04-01T16:20:52.262Z,0.70
2023-04-01T16:23:38.680Z,1.08
2023-04-01T16:26:28.589Z,0.70
2023-04-01T16:29:09.054Z,0.70
2023-04-01T16:31:53.288Z,0.70
2023-04-01T16:34:40.733Z,0.73
2023-04-01T16:37:29.278Z,0.70
2023-04-01T16:40:17.205Z,0.75
2023-04-01T16:42:52.796Z,0.70
2023-04-01T16:45:25.458Z,0.70
2023-04-01T16:47:58.089Z,0.70
2023-04-01T16:50:39.127Z,0.80
2023-04-01T16:53:16.793Z,0.73
2023-04-01T16:56:08.799Z,0.70
2023-04-01T16:59:03.350Z,0.80
2023-04-01T17:01:52.564Z,0.73
2023-04-01T17:04:37.517Z,0.80
2023-04-01T17:07:08.198Z,0.70
2023-04-01T17:09:52.404Z,0.70
2023-04-01T17:12:29.089Z,0.67
2023-04-01T17:15:02.196Z,0.70
2023-04-01T17:17:37.075Z,0.80
2023-04-01T17:20:27.369Z,0.90
2023-04-01T17:23:28.337Z,0.80
2023-04-01T17:26:32.870Z,0.70
2023-04-01T17:29:09.013Z,0.70
2023-04-01T17:32:01.420Z,0.80
2023-04-01T17:35:00.771Z,0.98
2023-04-01T17:38:00.876Z,0.65
2023-04-01T17:40:38.956Z,0.63
2023-04-01T17:43:33.758Z,0.70
2023-04-01T17:46:23.387Z,0.70
2023-04-01T17:49:29.434Z,0.70
2023-04-01T17:52:31.907Z,0.70
2023-04-01T17:55:07.551Z,0.70
2023-04-01T17:57:34.396Z,0.70
2023-04-01T18:00:35.236Z,0.80
2023-04-01T18:03:24.410Z,0.60
2023-04-01T18:06:06.041Z,0.70
2023-04-01T18:08:57.879Z,0.90
2023-04-01T18:11:40.344Z,0.70
2023-04-01T18:14:46.788Z,0.70
2023-04-01T18:17:38.856Z,0.70
2023-04-01T18:20:24.427Z,0.70
2023-04-01T18:23:34.580Z,0.60
2023-04-01T18:26:14.650Z,0.80
2023-04-01T18:28:50.844Z,0.70
2023-04-01T18:31:25.446Z,0.70
2023-04-01T18:34:09.833Z,0.90
2023-04-01T18:37:01.479Z,0.70
2023-04-01T18:39:41.664Z,0.80
2023-04-01T18:42:31.432Z,0.77
2023-04-01T18:45:16.917Z,1.00
2023-04-01T18:48:08.007Z,0.70
2023-04-01T18:51:03.208Z,0.90
2023-04-01T18:53:36.128Z,0.63
2023-04-01T18:56:04.907Z,0.70
2023-04-01T18:58:49.296Z,0.70
2023-04-01T19:01:40.588Z,0.65
2023-04-01T19:04:37.078Z,2.00
2023-04-01T19:07:44.918Z,0.80
2023-04-01T19:10:45.463Z,0.70
2023-04-01T19:13:27.886Z,1.27
2023-04-01T19:16:24.787Z,0.80
2023-04-01T19:19:19.616Z,0.77
2023-04-01T19:21:53.960Z,0.80
2023-04-01T19:24:39.614Z,0.90
2023-04-01T19:27:38.608Z,0.80
2023-04-01T19:30:33.030Z,0.90
2023-04-01T19:33:06.619Z,0.60
2023-04-01T19:35:50.596Z,0.70
2023-04-01T19:38:42.490Z,0.65
2023-04-01T19:41:31.408Z,0.80
2023-04-01T19:44:15.699Z,0.95
2023-04-01T19:46:51.091Z,0.80
2023-04-01T19:49:25.346Z,0.95
2023-04-01T19:52:25.162Z,0.70
2023-04-01T19:55:06.686Z,0.90
2023-04-01T19:57:48.602Z,0.70
2023-04-01T20:00:32.353Z,0.80
2023-04-01T20:03:34.767Z,0.80
2023-04-01T20:06:13.588Z,0.70
2023-04-01T20:09:07.718Z,0.70
2023-04-01T20:11:43.395Z,0.80
2023-04-01T20:14:45.617Z,0.77
2023-04-01T20:17:46.966Z,0.80
2023-04-01T20:20:19.588Z,0.80
2023-04-01T20:22:46.681Z,0.73
2023-04-01T20:25:16.510Z,0.80
2023-04-01T20:28:10.206Z,0.70
2023-04-01T20:31:07.530Z,0.70
2023-04-01T20:33:55.383Z,0.70
2023-04-01T20:36:27.748Z,0.77
2023-04-01T20:39:22.476Z,0.70
2023-04-01T20:42:17.087Z,0.70
2023-04-01T20:44:50.174Z,0.60
2023-04-01T20:47:35.410Z,0.70
2023-04-01T20:50:27.076Z,0.65
2023-04-01T20:53:14.231Z,0.70
2023-04-01T20:55:47.585Z,0.73
2023-04-01T20:58:53.805Z,0.80
2023-04-01T21:01:40.265Z,0.70
2023-04-01T21:04:23.799Z,0.70
2023-04-01T21:07:31.274Z,0.88
2023-04-01T21:10:10.223Z,0.60
2023-04-01T21:13:05.157Z,0.70
2023-04-01T21:15:48.270Z,0.60
2023-04-01T21:18:48.127Z,0.70
2023-04-01T21:21:38.112Z,0.75
2023-04-01T21:24:13.809Z,0.60
2023-04-01T21:27:06.526Z,0.80
2023-04-01T21:29:36.295Z,0.70
2023-04-01T21:32:38.492Z,1.27
2023-04-01T21:35:37.592Z,0.70
2023-04-01T21:38:23.678Z,0.77
2023-04-01T21:41:18.376Z,0.85
2023-04-01T21:43:48.092Z,0.75
2023-04-01T21:46:44.354Z,0.77
2023-04-01T21:49:33.448Z,0.70
2023-04-01T21:52:12.056Z,1.00
2023-04-01T21:54:41.756Z,0.70
2023-04-01T21:57:40.984Z,0.80
2023-04-01T22:00:21.522Z,0.80
2023-04-01T22:03:19.700Z,0.70
2023-04-01T22:06:26.323Z,0.70
2023-04-01T22:09:13.503Z,0.90
2023-04-01T22:11:46.128Z,0.80
2023-04-01T22:14:41.248Z,1.00
2023-04-01T22:17:52.924Z,0.80
2023-04-01T22:20:33.950Z,0.95
2023-04-01T22:23:22.266Z,0.77
2023-04-01T22:26:07.598Z,0.80
2023-04-01T22:28:54.193Z,0.63
2023-04-01T22:31:29.418Z,0.82
2023-04-01T22:34:33.781Z,0.85
2023-04-01T22:37:03.277Z,0.70
2023-04-01T22:39:54.807Z,0.70
2023-04-01T22:42:46.162Z,0.88
2023-04-01T22:45:38.596Z,0.85
2023-04-01T22:48:26.952Z,1.07
2023-04-01T22:50:59.685Z,1.13
2023-04-01T22:53:36.265Z,1.08
2023-04-01T22:56:12.473Z,0.80
2023-04-01T22:58:44.279Z,0.90
2023-04-01T23:01:18.520Z,1.08
2023-04-01T23:03:49.501Z,0.70
2023-04-01T23:06:33.876Z,0.80
2023-04-01T23:09:41.600Z,0.77
2023-04-01T23:12:14.823Z,0.88
2023-04-01T23:14:58.794Z,0.93
2023-04-01T23:17:47.560Z,0.70
2023-04-01T23:20:35.370Z,0.70
2023-04-01T23:23:39.035Z,1.00
2023-04-01T23:26:16.226Z,0.70
2023-04-01T23:28:47.892Z,1.25
2023-04-01T23:31:31.428Z,1.20
2023-04-01T23:34:12.102Z,0.80
2023-04-01T23:36:42.170Z,0.80
2023-04-01T23:39:31.826Z,1.08
2023-04-01T23:42:04.587Z,0.82
2023-04-01T23:44:32.200Z,1.40
2023-04-01T23:47:01.774Z,0.80
2023-04-01T23:49:44.610Z,0.80
2023-04-01T23:52:25.758Z,0.80
2023-04-01T23:54:58.523Z,0.80
2023-04-01T23:57:32.731Z,0.70
